Sherman, NY (14781)

8:22 AM EDT on October 18, 2019 (GMT -0400)
Panama | | Change Station
Active Advisory: Frost Advisory

Elev 1841 ft 42.07 °N, 79.60 °W | Updated 15 seconds ago

Overcast
Overcast
40.3 °F
Feels Like 40 °F
N
2
Wind Variable Wind from NNE
Gusts 3.4 mph

Today
High -- | Low -- °F
--% Chance of Precip.
Yesterday
High -- | Low -- °F
Precip. -- in
Pressure 30.01 in
Visibility 10.0 miles
Clouds Few 2200 ft
Overcast 3200 ft
Windchill 40 °F
Dew Point 36 °F
Humidity 86%
Rainfall 0.00 in
Snow Depth Not available.
7:34 AM 6:32 PM
Waning Gibbous, 80% visible
METAR KJHW 181156Z AUTO 33006KT 10SM FEW022 OVC032 04/02 A2997 RMK AO2 SLP163 60001 70006 T00440022 10050 20044 51015
Pressure 30.01 in
Visibility 10.0 miles
Clouds Few 2200 ft
Overcast 3200 ft
Windchill 40 °F
Dew Point 36 °F
Humidity 86%
Rainfall 0.00 in
Snow Depth Not available.
7:34 AM 6:32 PM
Waning Gibbous, 80% visible
METAR KJHW 181156Z AUTO 33006KT 10SM FEW022 OVC032 04/02 A2997 RMK AO2 SLP163 60001 70006 T00440022 10050 20044 51015

Get Your Daily Forecast Email!

Thanks for signing up!

Be on the lookout for a verification email in your inbox.

You'll start receiving severe weather alerts in your inbox..

×

10-Day Weather Forecast

Almanac

Astronomy

Oct. 18, 2019 Rise Set
Actual Time
Civil Twilight
Nautical Twilight
Astronomical Twilight
Moon
Length of Visible Light
Length of Day
Tomorrow will be .
, % of the Moon is Illuminated

Today's Extremes

State Highs State Lows

Community

WunderPhotos

Category 6

Welcome to Category 6. This is the collective home for Weather Underground's featured writeups by Dr. Jeff Masters (right), Bob Henson (left), Chris Burt, and other regular contributors.

Nearby

Air Quality

  Air Quality AQ Index Pollutant
Not available.

Snow Depth

Station Depth Elevation

Earthquake Activity

City Distance Mag. Time & Date
Minimum magnitude displayed is 2.5.

Coastal Water Temperatures

Place Temperature

Stations

Nearby Weather Stations

Station Location Temp. Windchill Dew Point Humidity Wind Precip. Elev Updated Type
                   

Watches & Warnings

Frost Advisory
Issued: 3:52 AM EDT Oct. 18, 2019 – National Weather Service

... Frost advisory in effect from midnight tonight to 9 am EDT
Saturday...

* what... temperatures in the lower to mid 30s are expected to
allow for frost formation.

* Where... Niagara, Orleans, Monroe, Wayne, northern Cayuga,
Oswego, Erie, Genesee, Livingston, Ontario, and Chautauqua
counties.

* When... from midnight tonight to 9 am EDT Saturday.

* Impacts... frost could kill sensitive outdoor vegetation if
left uncovered.

Precautionary/preparedness actions...

Take steps now to protect tender plants from the cold.



Jjr